Terminal Aerodrome Forecast
Issued by NWS

Home | Current Version | Previous Version | Text Only | Print | Product List | Glossary On
Versions: 1 2 3 4 5 6 7 8 9 10 11 12 13 14 15 16 17 18
000
FTUS45 KABQ 221100 RRA
TAFGUP
TAF
KGUP 221140Z 2212/2312 25008KT P6SM FEW040 BKN150
     FM221800 28019G28KT P6SM SCT060 SCT100
      TEMPO 2219/2223 SCT050 BKN080
     FM230130 27010KT P6SM FEW050 SCT100=

USA.gov is the U.S. government's official web portal to all federal, state and local government web resources and services.